createdAt,value
2017-10-19T00:00:39.936Z,11.65
2017-10-19T00:03:06.243Z,11.32
2017-10-19T00:05:32.580Z,11.85
2017-10-19T00:07:58.867Z,10.85
2017-10-19T00:10:25.208Z,10.98
2017-10-19T00:12:52.283Z,10.82
2017-10-19T00:15:18.972Z,10.07
2017-10-19T00:17:46.060Z,11.30
2017-10-19T00:20:12.461Z,10.30
2017-10-19T00:22:38.790Z,12.75
2017-10-19T00:25:05.115Z,11.27
2017-10-19T00:27:31.473Z,11.30
2017-10-19T00:30:04.806Z,9.90
2017-10-19T00:32:31.181Z,10.23
2017-10-19T00:34:58.263Z,10.93
2017-10-19T00:37:24.652Z,10.30
2017-10-19T00:39:51.716Z,10.27
2017-10-19T00:42:18.082Z,9.63
2017-10-19T00:44:44.447Z,9.45
2017-10-19T00:47:10.771Z,10.30
2017-10-19T00:49:37.187Z,10.98
2017-10-19T00:52:03.542Z,9.73
2017-10-19T00:54:30.670Z,11.15
2017-10-19T00:56:57.064Z,10.52
2017-10-19T00:59:23.443Z,9.35
2017-10-19T01:01:49.824Z,10.40
2017-10-19T01:04:16.177Z,9.60
2017-10-19T01:06:42.571Z,9.93
2017-10-19T01:09:08.932Z,9.95
2017-10-19T01:11:35.278Z,8.90
2017-10-19T01:14:01.642Z,9.25
2017-10-19T01:16:28.762Z,9.80
2017-10-19T01:18:55.239Z,9.52
2017-10-19T01:21:21.597Z,9.55
2017-10-19T01:23:48.054Z,10.13
2017-10-19T01:26:14.417Z,8.90
2017-10-19T01:28:40.877Z,8.65
2017-10-19T01:31:07.244Z,8.02
2017-10-19T01:33:33.626Z,9.60
2017-10-19T01:36:00.021Z,9.45
2017-10-19T01:38:27.150Z,9.65
2017-10-19T01:40:53.534Z,9.40
2017-10-19T01:43:19.915Z,9.13
2017-10-19T01:45:46.309Z,10.45
2017-10-19T01:48:12.692Z,10.35
2017-10-19T01:50:39.796Z,11.55
2017-10-19T01:53:06.133Z,11.10
2017-10-19T01:55:32.453Z,9.98
2017-10-19T01:57:58.782Z,10.40
2017-10-19T02:00:26.009Z,9.73
2017-10-19T02:02:52.326Z,10.77
2017-10-19T02:05:18.692Z,10.30
2017-10-19T02:07:44.988Z,10.23
2017-10-19T02:10:11.284Z,10.00
2017-10-19T02:12:37.596Z,10.10
2017-10-19T02:15:03.937Z,11.23
2017-10-19T02:17:30.212Z,10.85
2017-10-19T02:19:56.553Z,10.27
2017-10-19T02:22:22.842Z,10.13
2017-10-19T02:24:49.935Z,9.82
2017-10-19T02:27:16.229Z,12.57
2017-10-19T02:32:15.320Z,9.80
2017-10-19T02:34:41.587Z,10.10
2017-10-19T02:37:07.868Z,10.27
2017-10-19T02:39:34.170Z,9.40
2017-10-19T02:42:00.426Z,9.52
2017-10-19T02:44:26.725Z,9.45
2017-10-19T02:46:53.035Z,11.10
2017-10-19T02:49:19.333Z,9.90
2017-10-19T02:51:46.384Z,18.15
2017-10-19T02:54:12.681Z,17.05
2017-10-19T02:56:39.002Z,12.13
2017-10-19T02:59:05.335Z,11.23
2017-10-19T03:01:31.639Z,10.63
2017-10-19T03:03:57.928Z,10.90
2017-10-19T03:06:24.267Z,12.80
2017-10-19T03:08:50.590Z,12.45
2017-10-19T03:11:16.869Z,13.38
2017-10-19T03:13:43.192Z,11.43
2017-10-19T03:16:09.490Z,10.82
2017-10-19T03:18:35.850Z,10.05
2017-10-19T03:21:02.133Z,10.10
2017-10-19T03:23:28.424Z,10.65
2017-10-19T03:25:54.728Z,10.90
2017-10-19T03:28:21.033Z,10.55
2017-10-19T03:30:47.335Z,10.00
2017-10-19T03:33:13.622Z,9.48
2017-10-19T03:35:39.962Z,9.65
2017-10-19T03:38:06.242Z,9.90
2017-10-19T03:40:32.536Z,9.82
2017-10-19T03:42:59.583Z,10.70
2017-10-19T03:45:26.637Z,9.50
2017-10-19T03:47:52.978Z,9.15
2017-10-19T03:50:19.309Z,9.98
2017-10-19T03:52:45.597Z,10.88
2017-10-19T03:55:11.928Z,10.10
2017-10-19T03:57:39.037Z,9.55
2017-10-19T04:00:05.352Z,9.10
2017-10-19T04:02:31.615Z,9.43
2017-10-19T04:04:57.911Z,9.30
2017-10-19T04:07:24.177Z,8.30
2017-10-19T04:09:50.465Z,8.85
2017-10-19T04:12:16.724Z,8.57
2017-10-19T04:14:43.028Z,8.55
2017-10-19T04:17:09.302Z,8.90
2017-10-19T04:19:36.396Z,8.15
2017-10-19T04:22:02.674Z,9.80
2017-10-19T04:24:29.698Z,8.02
2017-10-19T04:26:55.982Z,9.15
2017-10-19T04:29:22.265Z,9.65
2017-10-19T04:31:48.558Z,8.60
2017-10-19T04:34:14.846Z,9.05
2017-10-19T04:36:41.935Z,10.70
2017-10-19T04:39:08.227Z,8.88
2017-10-19T04:41:34.543Z,9.43
2017-10-19T04:44:00.842Z,9.30
2017-10-19T04:46:27.108Z,9.05
2017-10-19T04:48:53.400Z,8.15
2017-10-19T04:51:19.747Z,9.13
2017-10-19T04:53:46.794Z,8.90
2017-10-19T04:56:13.853Z,8.18
2017-10-19T04:58:40.892Z,9.07
2017-10-19T05:01:07.969Z,7.75
2017-10-19T05:03:34.243Z,9.07
2017-10-19T05:06:00.535Z,8.88
2017-10-19T05:08:26.825Z,9.10
2017-10-19T05:10:53.147Z,8.77
2017-10-19T05:13:20.224Z,9.05
2017-10-19T05:15:46.803Z,7.68
2017-10-19T05:18:13.146Z,9.65
2017-10-19T05:20:39.537Z,9.60
2017-10-19T05:23:05.880Z,10.85
2017-10-19T05:25:32.207Z,9.40
2017-10-19T05:27:58.509Z,10.38
2017-10-19T05:30:24.821Z,9.05
2017-10-19T05:32:51.114Z,10.73
2017-10-19T05:35:18.170Z,8.50
2017-10-19T05:37:45.192Z,8.00
2017-10-19T05:40:11.496Z,7.32
2017-10-19T05:42:37.795Z,7.30
2017-10-19T05:45:04.099Z,6.60
2017-10-19T05:47:31.121Z,6.60
2017-10-19T05:49:57.438Z,7.18
2017-10-19T05:52:23.709Z,7.85
2017-10-19T05:54:50.795Z,7.72
2017-10-19T05:57:17.080Z,6.60
2017-10-19T05:59:44.125Z,7.45
2017-10-19T06:02:11.172Z,7.60
2017-10-19T06:04:38.183Z,7.82
2017-10-19T06:07:04.497Z,6.80
2017-10-19T06:09:30.785Z,7.53
2017-10-19T06:11:57.802Z,7.28
2017-10-19T06:14:24.091Z,7.32
2017-10-19T06:16:50.405Z,7.05
2017-10-19T06:19:16.736Z,7.25
2017-10-19T06:21:43.018Z,6.95
2017-10-19T06:24:10.033Z,7.18
2017-10-19T06:26:36.334Z,6.95
2017-10-19T06:29:02.647Z,6.80
2017-10-19T06:31:28.945Z,6.10
2017-10-19T06:33:56.325Z,6.32
2017-10-19T06:36:22.616Z,6.22
2017-10-19T06:38:48.923Z,5.68
2017-10-19T06:41:15.243Z,7.00
2017-10-19T06:43:41.550Z,6.15
2017-10-19T06:46:08.175Z,7.03
2017-10-19T06:48:34.489Z,8.10
2017-10-19T06:51:00.791Z,9.45
2017-10-19T06:53:27.079Z,10.13
2017-10-19T06:55:53.355Z,9.82
2017-10-19T06:58:19.883Z,10.10
2017-10-19T07:00:46.177Z,9.10
2017-10-19T07:03:19.347Z,8.27
2017-10-19T07:05:45.655Z,8.00
2017-10-19T07:08:12.086Z,7.95
2017-10-19T07:10:38.455Z,7.55
2017-10-19T07:13:04.780Z,7.12
2017-10-19T07:15:31.057Z,7.67
2017-10-19T07:17:58.091Z,7.70
2017-10-19T07:20:24.514Z,6.97
2017-10-19T07:22:50.794Z,6.40
2017-10-19T07:25:17.119Z,6.73
2017-10-19T07:27:43.432Z,6.83
2017-10-19T07:30:10.497Z,6.23
2017-10-19T07:32:36.828Z,6.80
2017-10-19T07:35:03.139Z,7.30
2017-10-19T07:37:30.200Z,7.53
2017-10-19T07:39:56.529Z,7.73
2017-10-19T07:42:22.875Z,8.37
2017-10-19T07:44:49.150Z,8.00
2017-10-19T07:47:15.417Z,7.40
2017-10-19T07:49:41.716Z,7.33
2017-10-19T07:52:08.797Z,8.03
2017-10-19T07:54:35.100Z,8.10
2017-10-19T07:57:01.371Z,9.07
2017-10-19T07:59:27.695Z,9.48
2017-10-19T08:01:53.973Z,12.52
2017-10-19T08:04:21.020Z,9.50
2017-10-19T08:06:48.068Z,10.32
2017-10-19T08:09:15.112Z,12.25
2017-10-19T08:11:42.161Z,11.65
2017-10-19T08:14:08.432Z,11.48
2017-10-19T08:16:34.777Z,11.55
2017-10-19T08:19:01.182Z,10.93
2017-10-19T08:21:27.513Z,10.98
2017-10-19T08:23:53.842Z,10.55
2017-10-19T08:26:20.906Z,9.75
2017-10-19T08:28:47.174Z,11.15
2017-10-19T08:31:14.554Z,10.52
2017-10-19T08:33:41.587Z,13.27
2017-10-19T08:36:07.889Z,12.32
2017-10-19T08:38:34.192Z,14.57
2017-10-19T08:41:00.481Z,16.77
2017-10-19T08:43:26.823Z,18.33
2017-10-19T08:45:53.116Z,18.10
2017-10-19T08:48:27.139Z,18.33
2017-10-19T08:50:53.414Z,15.70
2017-10-19T08:53:19.744Z,13.93
2017-10-19T08:55:46.050Z,11.53
2017-10-19T08:58:12.317Z,6.93
2017-10-19T09:00:38.630Z,7.47
2017-10-19T09:03:04.960Z,7.60
2017-10-19T09:05:31.257Z,7.80
2017-10-19T09:07:57.555Z,6.37
2017-10-19T09:10:24.607Z,6.10
2017-10-19T09:12:50.916Z,7.70
2017-10-19T09:15:17.296Z,6.87
2017-10-19T09:17:43.575Z,6.63
2017-10-19T09:20:10.587Z,6.87
2017-10-19T09:22:36.983Z,6.97
2017-10-19T09:25:03.334Z,6.80
2017-10-19T09:27:51.744Z,8.70
2017-10-19T09:30:18.119Z,7.63
2017-10-19T09:32:44.443Z,7.60
2017-10-19T09:35:10.769Z,8.70
2017-10-19T09:37:37.047Z,6.60
2017-10-19T09:40:04.135Z,7.60
2017-10-19T09:45:23.696Z,8.03
2017-10-19T09:47:50.030Z,8.57
2017-10-19T09:50:16.374Z,9.30
2017-10-19T09:52:42.691Z,8.03
2017-10-19T09:55:09.010Z,8.47
2017-10-19T09:57:35.361Z,8.83
2017-10-19T10:00:01.711Z,8.93
2017-10-19T10:02:28.025Z,8.60
2017-10-19T10:04:54.363Z,8.83
2017-10-19T10:07:20.682Z,8.90
2017-10-19T10:09:46.988Z,8.47
2017-10-19T10:12:13.359Z,9.27
2017-10-19T10:14:39.616Z,8.93
2017-10-19T10:17:05.932Z,9.50
2017-10-19T10:19:32.268Z,8.50
2017-10-19T10:21:58.599Z,8.27
2017-10-19T10:24:24.921Z,8.37
2017-10-19T10:26:51.265Z,7.77
2017-10-19T10:29:18.311Z,8.47
2017-10-19T10:31:45.359Z,7.53
2017-10-19T10:34:12.415Z,8.70
2017-10-19T10:36:39.476Z,8.27
2017-10-19T10:39:05.811Z,8.70
2017-10-19T10:41:32.111Z,7.57
2017-10-19T10:43:59.228Z,7.73
2017-10-19T10:46:25.540Z,8.50
2017-10-19T10:48:51.895Z,8.77
2017-10-19T10:51:18.230Z,7.90
2017-10-19T10:53:44.532Z,8.70
2017-10-19T10:56:10.843Z,8.47
2017-10-19T10:58:37.182Z,8.07
2017-10-19T11:01:03.572Z,7.70
2017-10-19T11:03:29.879Z,7.07
2017-10-19T11:05:56.922Z,6.20
2017-10-19T11:08:23.185Z,5.60
2017-10-19T11:10:49.528Z,7.10
2017-10-19T11:13:15.818Z,5.90
2017-10-19T11:15:42.835Z,5.47
2017-10-19T11:18:09.135Z,5.50
2017-10-19T11:20:35.451Z,5.20
2017-10-19T11:23:01.759Z,4.77
2017-10-19T11:25:28.061Z,4.77
2017-10-19T11:27:54.726Z,5.10
2017-10-19T11:30:21.019Z,4.40
2017-10-19T11:32:47.309Z,5.17
2017-10-19T11:35:13.672Z,4.90
2017-10-19T11:37:39.998Z,3.80
2017-10-19T11:40:06.328Z,5.77
2017-10-19T11:42:32.636Z,5.17
2017-10-19T11:44:58.946Z,5.10
2017-10-19T11:47:25.228Z,4.47
2017-10-19T11:49:51.489Z,4.80
2017-10-19T11:52:17.798Z,5.07
2017-10-19T11:54:44.820Z,4.73
2017-10-19T11:57:11.128Z,4.80
2017-10-19T11:59:37.442Z,4.80
2017-10-19T12:02:03.795Z,4.23
2017-10-19T12:04:30.080Z,4.20
2017-10-19T12:06:56.381Z,4.37
2017-10-19T12:09:23.422Z,4.20
2017-10-19T12:11:50.504Z,4.40
2017-10-19T12:14:16.797Z,4.20
2017-10-19T12:16:43.842Z,4.43
2017-10-19T12:19:10.157Z,3.97
2017-10-19T12:21:36.453Z,3.83
2017-10-19T12:24:02.786Z,3.63
2017-10-19T12:26:29.107Z,4.17
2017-10-19T12:28:55.386Z,4.47
2017-10-19T12:31:22.473Z,3.93
2017-10-19T12:33:48.806Z,3.63
2017-10-19T12:36:15.086Z,3.80
2017-10-19T12:38:41.406Z,3.70
2017-10-19T12:41:07.678Z,5.17
2017-10-19T12:43:34.014Z,4.93
2017-10-19T12:46:00.307Z,4.50
2017-10-19T12:48:26.648Z,4.20
2017-10-19T12:50:59.802Z,4.27
2017-10-19T12:53:26.574Z,4.60
2017-10-19T12:55:52.874Z,5.33
2017-10-19T12:58:19.926Z,6.47
2017-10-19T13:00:46.227Z,5.20
2017-10-19T13:03:12.573Z,5.80
2017-10-19T13:05:38.908Z,6.10
2017-10-19T13:08:06.694Z,5.30
2017-10-19T13:10:33.746Z,6.67
2017-10-19T13:13:00.059Z,5.60
2017-10-19T13:15:27.114Z,5.57
2017-10-19T13:17:54.141Z,7.07
2017-10-19T13:20:21.180Z,6.10
2017-10-19T13:22:47.514Z,6.27
2017-10-19T13:25:13.814Z,6.50
2017-10-19T13:27:40.120Z,7.07
2017-10-19T13:30:06.436Z,6.23
2017-10-19T13:32:32.755Z,6.43
2017-10-19T13:34:59.053Z,6.57
2017-10-19T13:37:25.361Z,7.20
2017-10-19T13:39:51.676Z,6.60
2017-10-19T13:42:17.989Z,6.67
2017-10-19T13:44:45.038Z,7.10
2017-10-19T13:47:11.336Z,6.77
2017-10-19T13:49:37.640Z,7.50
2017-10-19T13:52:04.773Z,8.13
2017-10-19T13:54:31.135Z,7.93
2017-10-19T13:56:58.166Z,8.37
2017-10-19T13:59:24.446Z,9.60
2017-10-19T14:01:50.778Z,8.80
2017-10-19T14:04:17.959Z,9.00
2017-10-19T14:06:44.283Z,8.97
2017-10-19T14:09:10.586Z,9.83
2017-10-19T14:11:36.897Z,10.27
2017-10-19T14:14:03.227Z,12.90
2017-10-19T14:16:29.541Z,13.80
2017-10-19T14:18:56.126Z,14.30
2017-10-19T14:21:22.455Z,12.60
2017-10-19T14:23:48.758Z,11.90
2017-10-19T14:26:15.081Z,11.77
2017-10-19T14:28:41.409Z,12.93
2017-10-19T14:31:07.740Z,12.50
2017-10-19T14:33:34.029Z,14.20
2017-10-19T14:36:01.057Z,13.93
2017-10-19T14:38:27.404Z,15.60
2017-10-19T14:40:54.024Z,13.20
2017-10-19T14:43:20.308Z,13.30
2017-10-19T14:45:46.636Z,14.13
2017-10-19T14:48:12.941Z,13.90
2017-10-19T14:50:39.269Z,13.93
2017-10-19T14:53:05.611Z,13.33
2017-10-19T14:55:31.911Z,13.00
2017-10-19T14:57:58.964Z,13.93
2017-10-19T15:00:26.004Z,12.20
2017-10-19T15:02:52.414Z,11.97
2017-10-19T15:05:18.717Z,12.47
2017-10-19T15:07:45.023Z,12.83
2017-10-19T15:10:11.342Z,12.53
2017-10-19T15:12:37.650Z,11.23
2017-10-19T15:15:04.751Z,13.03
2017-10-19T15:17:31.055Z,10.17
2017-10-19T15:19:57.347Z,10.20
2017-10-19T15:22:24.394Z,10.50
2017-10-19T15:24:51.454Z,10.70
2017-10-19T15:27:17.729Z,11.57
2017-10-19T15:29:44.048Z,11.00
2017-10-19T15:32:10.378Z,12.97
2017-10-19T15:34:36.698Z,12.47
2017-10-19T15:37:03.706Z,12.97
2017-10-19T15:39:30.034Z,13.80
2017-10-19T15:41:57.091Z,14.87
2017-10-19T15:44:23.394Z,16.83
2017-10-19T15:46:50.533Z,14.67
2017-10-19T15:49:16.808Z,16.87
2017-10-19T15:51:43.117Z,18.23
2017-10-19T15:54:10.205Z,18.40
2017-10-19T15:56:36.504Z,19.40
2017-10-19T15:59:02.820Z,19.13
2017-10-19T16:01:29.154Z,21.40
2017-10-19T16:03:55.538Z,21.40
2017-10-19T16:06:21.802Z,21.27
2017-10-19T16:08:48.843Z,21.83
2017-10-19T16:11:15.911Z,24.03
2017-10-19T16:13:42.228Z,25.20
2017-10-19T16:16:08.568Z,25.17
2017-10-19T16:18:34.871Z,23.70
2017-10-19T16:21:01.933Z,26.23
2017-10-19T16:23:28.279Z,26.93
2017-10-19T16:25:54.581Z,25.40
2017-10-19T16:28:21.657Z,24.07
2017-10-19T16:30:48.019Z,25.50
2017-10-19T16:33:14.360Z,24.67
2017-10-19T16:35:40.669Z,27.60
2017-10-19T16:38:07.364Z,24.90
2017-10-19T16:40:33.682Z,25.27
2017-10-19T16:43:00.053Z,24.27
2017-10-19T16:45:26.357Z,23.17
2017-10-19T16:47:52.693Z,24.23
2017-10-19T16:50:19.021Z,24.40
2017-10-19T16:52:45.309Z,23.60
2017-10-19T16:55:11.647Z,23.73
2017-10-19T17:00:38.396Z,23.00
2017-10-19T17:03:05.587Z,24.60
2017-10-19T17:05:31.977Z,26.10
2017-10-19T17:07:59.063Z,28.53
2017-10-19T17:10:26.149Z,26.90
2017-10-19T17:12:52.486Z,26.07
2017-10-19T17:15:18.836Z,24.13
2017-10-19T17:17:45.911Z,25.40
2017-10-19T17:20:12.216Z,25.23
2017-10-19T17:22:39.265Z,27.83
2017-10-19T17:25:06.312Z,31.60
2017-10-19T17:27:32.648Z,26.63
2017-10-19T17:29:58.978Z,25.20
2017-10-19T17:32:25.299Z,25.30
2017-10-19T17:34:51.662Z,26.50
2017-10-19T17:37:17.994Z,29.20
2017-10-19T17:39:44.419Z,29.37
2017-10-19T17:42:10.752Z,25.07
2017-10-19T17:44:37.087Z,28.10
2017-10-19T17:47:03.439Z,27.87
2017-10-19T17:49:29.832Z,25.87
2017-10-19T17:51:56.192Z,25.20
2017-10-19T17:54:22.536Z,26.13
2017-10-19T17:56:49.699Z,27.27
2017-10-19T17:59:16.784Z,26.60
2017-10-19T18:01:43.117Z,28.07
2017-10-19T18:04:09.472Z,29.70
2017-10-19T18:06:35.968Z,30.03
2017-10-19T18:09:02.423Z,28.60
2017-10-19T18:11:28.862Z,28.77
2017-10-19T18:13:55.290Z,27.60
2017-10-19T18:16:21.652Z,32.03
2017-10-19T18:18:48.107Z,31.83
2017-10-19T18:21:14.504Z,32.17
2017-10-19T18:23:40.904Z,30.63
2017-10-19T18:26:07.312Z,28.83
2017-10-19T18:28:33.695Z,28.80
2017-10-19T18:31:00.104Z,30.10
2017-10-19T18:33:26.847Z,31.53
2017-10-19T18:35:53.247Z,31.33
2017-10-19T18:38:19.659Z,31.07
2017-10-19T18:40:46.126Z,29.43
2017-10-19T18:43:12.560Z,30.53
2017-10-19T18:45:39.013Z,30.53
2017-10-19T18:48:05.392Z,30.07
2017-10-19T18:50:31.795Z,28.73
2017-10-19T18:52:58.913Z,30.90
2017-10-19T18:55:25.342Z,30.23
2017-10-19T18:57:51.751Z,30.17
2017-10-19T19:00:18.351Z,29.97
2017-10-19T19:02:44.838Z,29.67
2017-10-19T19:05:11.264Z,29.53
2017-10-19T19:07:37.734Z,31.30
2017-10-19T19:10:04.985Z,29.53
2017-10-19T19:12:32.128Z,33.10
2017-10-19T19:14:59.221Z,31.63
2017-10-19T19:17:25.631Z,28.50
2017-10-19T19:19:52.049Z,32.17
2017-10-19T19:22:18.490Z,33.22
2017-10-19T19:24:44.926Z,30.60
2017-10-19T19:27:11.362Z,30.87
2017-10-19T19:29:37.741Z,29.60
2017-10-19T19:32:04.208Z,31.90
2017-10-19T19:34:30.737Z,31.85
2017-10-19T19:36:57.184Z,31.80
2017-10-19T19:39:23.547Z,29.92
2017-10-19T19:41:49.997Z,30.30
2017-10-19T19:44:16.399Z,34.00
2017-10-19T19:46:42.859Z,36.17
2017-10-19T19:49:09.297Z,34.38
2017-10-19T19:51:35.722Z,33.05
2017-10-19T19:54:02.121Z,32.30
2017-10-19T19:56:28.522Z,36.60
2017-10-19T19:58:54.946Z,37.65
2017-10-19T20:01:21.387Z,38.20
2017-10-19T20:03:47.859Z,37.67
2017-10-19T20:06:14.288Z,37.77
2017-10-19T20:08:41.048Z,37.58
2017-10-19T20:11:08.180Z,37.08
2017-10-19T20:13:34.605Z,34.00
2017-10-19T20:16:01.034Z,32.80
2017-10-19T20:18:27.401Z,33.53
2017-10-19T20:20:54.813Z,33.38
2017-10-19T20:23:21.172Z,36.40
2017-10-19T20:25:47.505Z,35.67
2017-10-19T20:28:13.893Z,33.88
2017-10-19T20:30:40.190Z,34.20
2017-10-19T20:33:06.909Z,33.10
2017-10-19T20:35:33.992Z,34.28
2017-10-19T20:38:00.339Z,34.65
2017-10-19T20:40:26.699Z,35.65
2017-10-19T20:42:53.042Z,36.58
2017-10-19T20:45:19.399Z,36.42
2017-10-19T20:47:45.730Z,35.53
2017-10-19T20:50:12.086Z,36.88
2017-10-19T20:52:38.443Z,38.05
2017-10-19T20:55:04.793Z,36.88
2017-10-19T20:57:31.869Z,37.58
2017-10-19T21:02:32.171Z,31.33
2017-10-19T21:04:58.468Z,31.75
2017-10-19T21:07:24.799Z,34.50
2017-10-19T21:09:51.093Z,32.08
2017-10-19T21:12:17.430Z,31.42
2017-10-19T21:14:43.737Z,30.05
2017-10-19T21:17:10.075Z,32.33
2017-10-19T21:19:36.393Z,32.47
2017-10-19T21:22:02.711Z,31.60
2017-10-19T21:24:29.781Z,32.55
2017-10-19T21:26:56.066Z,31.02
2017-10-19T21:29:22.400Z,30.27
2017-10-19T21:31:48.725Z,32.20
2017-10-19T21:34:15.035Z,34.15
2017-10-19T21:36:41.380Z,32.60
2017-10-19T21:39:08.420Z,32.10
2017-10-19T21:41:34.737Z,33.08
2017-10-19T21:44:01.060Z,30.73
2017-10-19T21:46:27.397Z,33.65
2017-10-19T21:48:53.698Z,31.98
2017-10-19T21:51:20.064Z,34.90
2017-10-19T21:53:46.411Z,35.30
2017-10-19T21:56:13.471Z,34.15
2017-10-19T21:58:40.526Z,33.55
2017-10-19T22:01:07.576Z,33.22
2017-10-19T22:03:33.969Z,32.72
2017-10-19T22:06:00.294Z,35.40
2017-10-19T22:08:26.613Z,30.35
2017-10-19T22:10:53.209Z,30.42
2017-10-19T22:13:19.506Z,29.90
2017-10-19T22:15:45.803Z,30.50
2017-10-19T22:18:12.123Z,31.33
2017-10-19T22:20:38.435Z,30.05
2017-10-19T22:23:04.761Z,29.55
2017-10-19T22:25:31.069Z,29.20
2017-10-19T22:27:58.121Z,28.92
2017-10-19T22:30:24.432Z,31.73
2017-10-19T22:32:51.487Z,28.90
2017-10-19T22:35:18.524Z,28.83
2017-10-19T22:37:45.565Z,29.08
2017-10-19T22:40:12.660Z,33.90
2017-10-19T22:42:38.964Z,30.10
2017-10-19T22:45:05.266Z,28.92
2017-10-19T22:47:32.332Z,34.88
2017-10-19T22:49:58.636Z,32.60
2017-10-19T22:52:25.998Z,37.90
2017-10-19T22:54:53.042Z,36.05
2017-10-19T22:57:20.067Z,33.22
2017-10-19T22:59:46.413Z,33.75
2017-10-19T23:02:16.038Z,32.30
2017-10-19T23:04:42.371Z,33.75
2017-10-19T23:07:08.671Z,31.83
2017-10-19T23:09:35.710Z,32.70
2017-10-19T23:12:02.010Z,31.20
2017-10-19T23:14:28.320Z,31.23
2017-10-19T23:16:54.662Z,31.27
2017-10-19T23:19:20.933Z,30.33
2017-10-19T23:21:47.994Z,29.95
2017-10-19T23:24:15.032Z,30.73
2017-10-19T23:26:42.093Z,31.20
2017-10-19T23:29:08.740Z,28.62
2017-10-19T23:31:35.035Z,31.85
2017-10-19T23:34:02.098Z,33.78
2017-10-19T23:36:28.437Z,33.70
2017-10-19T23:38:54.719Z,32.10
2017-10-19T23:41:21.032Z,33.10
2017-10-19T23:43:47.329Z,31.37
2017-10-19T23:46:13.642Z,29.35
2017-10-19T23:48:41.106Z,28.35
2017-10-19T23:51:07.436Z,31.98
2017-10-19T23:53:33.721Z,32.35
2017-10-19T23:56:00.043Z,28.02
2017-10-19T23:58:26.343Z,28.98
